createdAt,value
2018-10-01T00:01:28.530Z,16.35
2018-10-01T00:03:58.547Z,15.35
2018-10-01T00:06:28.580Z,16.32
2018-10-01T00:08:58.527Z,14.93
2018-10-01T00:11:28.493Z,15.43
2018-10-01T00:13:58.539Z,15.40
2018-10-01T00:16:28.430Z,15.50
2018-10-01T00:18:58.358Z,16.50
2018-10-01T00:21:33.615Z,15.83
2018-10-01T00:24:03.586Z,14.70
2018-10-01T00:26:33.610Z,16.50
2018-10-01T00:29:03.593Z,15.50
2018-10-01T00:31:33.515Z,16.35
2018-10-01T00:34:03.731Z,15.90
2018-10-01T00:36:33.630Z,16.32
2018-10-01T00:39:03.987Z,15.30
2018-10-01T00:41:33.878Z,14.38
2018-10-01T00:44:03.917Z,14.73
2018-10-01T00:46:34.430Z,14.53
2018-10-01T00:49:04.421Z,14.40
2018-10-01T00:51:34.346Z,13.18
2018-10-01T00:54:04.615Z,13.22
2018-10-01T00:56:35.183Z,13.95
2018-10-01T00:59:05.200Z,14.38
2018-10-01T01:01:35.349Z,14.87
2018-10-01T01:04:05.309Z,13.30
2018-10-01T01:06:35.230Z,14.40
2018-10-01T01:09:07.098Z,14.23
2018-10-01T01:11:37.825Z,13.62
2018-10-01T01:14:07.889Z,12.10
2018-10-01T01:16:37.838Z,11.20
2018-10-01T01:19:07.801Z,10.30
2018-10-01T01:21:37.795Z,10.45
2018-10-01T01:24:07.734Z,9.75
2018-10-01T01:26:37.666Z,9.73
2018-10-01T01:29:07.589Z,11.05
2018-10-01T01:31:42.766Z,12.03
2018-10-01T01:34:12.752Z,12.25
2018-10-01T01:36:42.931Z,13.32
2018-10-01T01:39:13.972Z,13.03
2018-10-01T01:41:43.922Z,8.73
2018-10-01T01:44:13.837Z,10.88
2018-10-01T01:46:44.026Z,8.58
2018-10-01T01:49:14.047Z,7.47
2018-10-01T01:51:44.027Z,9.18
2018-10-01T01:54:14.003Z,7.67
2018-10-01T01:56:43.965Z,7.50
2018-10-01T01:59:13.931Z,8.23
2018-10-01T02:01:44.123Z,7.28
2018-10-01T02:04:14.115Z,7.30
2018-10-01T02:06:44.142Z,7.20
2018-10-01T02:09:14.087Z,7.15
2018-10-01T02:11:43.991Z,7.10
2018-10-01T02:14:13.942Z,6.67
2018-10-01T02:16:43.938Z,7.40
2018-10-01T02:19:14.757Z,7.85
2018-10-01T02:21:44.938Z,7.08
2018-10-01T02:24:14.936Z,7.30
2018-10-01T02:26:44.889Z,7.85
2018-10-01T02:29:15.369Z,7.12
2018-10-01T02:31:45.371Z,6.70
2018-10-01T02:34:15.284Z,7.47
2018-10-01T02:36:45.710Z,7.30
2018-10-01T02:39:15.657Z,6.42
2018-10-01T02:41:45.629Z,7.33
2018-10-01T02:44:15.601Z,7.20
2018-10-01T02:46:45.558Z,6.70
2018-10-01T02:49:15.464Z,8.25
2018-10-01T02:51:50.874Z,8.03
2018-10-01T02:54:26.039Z,8.15
2018-10-01T02:56:55.983Z,7.00
2018-10-01T02:59:26.019Z,7.15
2018-10-01T03:01:56.071Z,6.70
2018-10-01T03:04:26.641Z,7.92
2018-10-01T03:06:56.613Z,7.22
2018-10-01T03:09:26.602Z,6.25
2018-10-01T03:11:56.513Z,6.12
2018-10-01T03:14:26.485Z,6.90
2018-10-01T03:16:56.401Z,7.05
2018-10-01T03:19:26.511Z,7.90
2018-10-01T03:21:56.483Z,7.35
2018-10-01T03:24:26.447Z,7.85
2018-10-01T03:26:56.342Z,7.00
2018-10-01T03:29:26.375Z,7.22
2018-10-01T03:31:57.356Z,6.53
2018-10-01T03:34:27.391Z,7.58
2018-10-01T03:36:57.400Z,7.85
2018-10-01T03:39:27.413Z,8.08
2018-10-01T03:41:57.616Z,7.17
2018-10-01T03:44:27.566Z,6.70
2018-10-01T03:46:57.535Z,9.10
2018-10-01T03:49:27.482Z,9.45
2018-10-01T03:51:57.424Z,10.63
2018-10-01T03:54:27.324Z,10.72
2018-10-01T03:56:57.388Z,8.33
2018-10-01T03:59:27.369Z,8.75
2018-10-01T04:01:57.357Z,6.58
2018-10-01T04:04:27.356Z,8.23
2018-10-01T04:06:57.336Z,7.83
2018-10-01T04:09:27.292Z,8.13
2018-10-01T04:11:57.291Z,8.18
2018-10-01T04:14:27.503Z,6.80
2018-10-01T04:16:57.413Z,7.75
2018-10-01T04:19:27.379Z,7.85
2018-10-01T04:21:57.342Z,7.90
2018-10-01T04:24:27.338Z,7.30
2018-10-01T04:26:57.257Z,8.15
2018-10-01T04:29:34.327Z,7.95
2018-10-01T04:32:04.267Z,8.70
2018-10-01T04:34:34.294Z,9.05
2018-10-01T04:37:04.234Z,7.47
2018-10-01T04:39:34.165Z,8.15
2018-10-01T04:42:04.160Z,8.88
2018-10-01T04:44:34.198Z,7.83
2018-10-01T04:47:04.151Z,9.48
2018-10-01T04:49:34.098Z,9.58
2018-10-01T04:52:04.084Z,9.90
2018-10-01T04:54:34.078Z,9.40
2018-10-01T04:57:04.046Z,9.90
2018-10-01T04:59:33.960Z,9.03
2018-10-01T05:02:03.967Z,9.63
2018-10-01T05:04:33.939Z,9.70
2018-10-01T05:07:03.989Z,9.53
2018-10-01T05:09:34.010Z,9.93
2018-10-01T05:12:03.981Z,9.90
2018-10-01T05:14:36.782Z,9.50
2018-10-01T05:17:06.778Z,9.38
2018-10-01T05:19:37.726Z,9.40
2018-10-01T05:22:07.729Z,9.80
2018-10-01T05:24:37.669Z,13.25
2018-10-01T05:27:07.669Z,11.10
2018-10-01T05:29:37.662Z,11.88
2018-10-01T05:32:07.802Z,10.18
2018-10-01T05:34:37.785Z,9.13
2018-10-01T05:37:07.705Z,9.58
2018-10-01T05:39:37.730Z,10.32
2018-10-01T05:42:07.673Z,9.65
2018-10-01T05:44:37.690Z,8.70
2018-10-01T05:47:07.669Z,8.88
2018-10-01T05:49:37.976Z,8.43
2018-10-01T05:52:07.933Z,8.48
2018-10-01T05:54:37.877Z,10.03
2018-10-01T05:57:07.814Z,8.63
2018-10-01T05:59:37.753Z,8.68
2018-10-01T06:02:07.790Z,8.70
2018-10-01T06:04:37.881Z,8.88
2018-10-01T06:07:07.889Z,9.65
2018-10-01T06:09:37.813Z,9.63
2018-10-01T06:12:07.974Z,10.95
2018-10-01T06:14:37.998Z,10.05
2018-10-01T06:17:08.015Z,9.65
2018-10-01T06:19:38.048Z,8.63
2018-10-01T06:22:08.229Z,7.95
2018-10-01T06:24:38.210Z,9.00
2018-10-01T06:27:08.190Z,9.43
2018-10-01T06:29:38.179Z,8.25
2018-10-01T06:32:08.163Z,8.68
2018-10-01T06:34:38.061Z,8.40
2018-10-01T06:37:08.053Z,8.50
2018-10-01T06:39:37.982Z,8.53
2018-10-01T06:42:08.072Z,8.20
2018-10-01T06:44:38.259Z,8.33
2018-10-01T06:47:08.887Z,8.15
2018-10-01T06:49:38.837Z,7.78
2018-10-01T06:52:09.009Z,7.80
2018-10-01T06:54:38.994Z,8.35
2018-10-01T06:57:08.931Z,8.73
2018-10-01T06:59:39.050Z,7.60
2018-10-01T07:02:09.450Z,7.45
2018-10-01T07:04:39.361Z,9.85
2018-10-01T07:07:09.281Z,7.42
2018-10-01T07:09:39.367Z,7.55
2018-10-01T07:12:09.335Z,7.53
2018-10-01T07:14:39.328Z,8.00
2018-10-01T07:17:09.699Z,8.45
2018-10-01T07:19:39.507Z,7.97
2018-10-01T07:22:09.453Z,7.45
2018-10-01T07:24:39.361Z,8.33
2018-10-01T07:27:09.265Z,7.78
2018-10-01T07:29:39.208Z,7.58
2018-10-01T07:32:09.129Z,8.48
2018-10-01T07:34:39.038Z,7.25
2018-10-01T07:37:09.320Z,7.25
2018-10-01T07:39:39.263Z,7.30
2018-10-01T07:42:09.610Z,7.47
2018-10-01T07:44:39.711Z,7.30
2018-10-01T07:47:09.694Z,7.57
2018-10-01T07:49:39.769Z,7.67
2018-10-01T07:52:09.723Z,7.40
2018-10-01T07:54:39.688Z,7.60
2018-10-01T07:57:09.636Z,8.37
2018-10-01T07:59:40.180Z,7.33
2018-10-01T08:02:10.017Z,7.60
2018-10-01T08:04:39.917Z,7.00
2018-10-01T08:07:09.872Z,7.20
2018-10-01T08:09:39.847Z,7.70
2018-10-01T08:12:10.051Z,7.50
2018-10-01T08:14:40.131Z,6.30
2018-10-01T08:17:10.001Z,7.10
2018-10-01T08:19:40.034Z,6.73
2018-10-01T08:22:10.322Z,6.50
2018-10-01T08:24:40.273Z,7.00
2018-10-01T08:27:11.270Z,6.40
2018-10-01T08:29:41.406Z,6.47
2018-10-01T08:32:11.267Z,7.17
2018-10-01T08:34:41.223Z,6.87
2018-10-01T08:37:11.159Z,6.83
2018-10-01T08:39:41.154Z,6.17
2018-10-01T08:42:11.467Z,8.00
2018-10-01T08:44:41.406Z,7.40
2018-10-01T08:47:11.398Z,7.73
2018-10-01T08:49:46.378Z,7.80
2018-10-01T08:52:20.840Z,7.77
2018-10-01T08:54:50.821Z,7.27
2018-10-01T08:57:20.807Z,9.00
2018-10-01T08:59:50.895Z,7.90
2018-10-01T09:02:21.348Z,9.30
2018-10-01T09:04:51.499Z,8.10
2018-10-01T09:07:22.083Z,9.07
2018-10-01T09:09:52.014Z,9.17
2018-10-01T09:12:22.003Z,8.20
2018-10-01T09:14:52.019Z,10.00
2018-10-01T09:17:21.983Z,9.80
2018-10-01T09:19:51.954Z,8.73
2018-10-01T09:22:21.984Z,9.07
2018-10-01T09:24:51.893Z,9.20
2018-10-01T09:27:21.803Z,9.23
2018-10-01T09:29:51.721Z,10.20
2018-10-01T09:32:21.736Z,8.77
2018-10-01T09:34:51.614Z,8.90
2018-10-01T09:37:21.769Z,9.27
2018-10-01T09:39:51.699Z,10.00
2018-10-01T09:42:21.638Z,9.83
2018-10-01T09:44:51.607Z,9.53
2018-10-01T09:47:22.223Z,11.23
2018-10-01T09:49:52.235Z,10.27
2018-10-01T09:52:22.800Z,10.83
2018-10-01T09:54:52.742Z,11.67
2018-10-01T09:57:22.780Z,11.53
2018-10-01T09:59:52.737Z,11.60
2018-10-01T10:02:22.895Z,10.77
2018-10-01T10:04:52.769Z,10.27
2018-10-01T10:07:22.721Z,11.57
2018-10-01T10:09:52.731Z,11.40
2018-10-01T10:12:22.645Z,10.83
2018-10-01T10:14:52.825Z,9.17
2018-10-01T10:17:22.832Z,10.77
2018-10-01T10:19:52.753Z,11.77
2018-10-01T10:22:22.869Z,10.07
2018-10-01T10:24:52.779Z,10.93
2018-10-01T10:27:22.695Z,11.53
2018-10-01T10:29:52.958Z,11.67
2018-10-01T10:32:22.872Z,12.03
2018-10-01T10:34:53.249Z,10.93
2018-10-01T10:37:23.166Z,11.83
2018-10-01T10:39:53.141Z,10.90
2018-10-01T10:42:23.034Z,10.80
2018-10-01T10:44:52.973Z,10.77
2018-10-01T10:47:22.897Z,11.40
2018-10-01T10:49:52.943Z,10.90
2018-10-01T10:52:22.863Z,10.50
2018-10-01T10:54:52.833Z,11.30
2018-10-01T10:57:22.791Z,12.50
2018-10-01T10:59:52.706Z,14.00
2018-10-01T11:02:22.632Z,12.80
2018-10-01T11:04:53.099Z,11.27
2018-10-01T11:07:23.074Z,10.40
2018-10-01T11:09:53.051Z,9.60
2018-10-01T11:12:23.049Z,8.93
2018-10-01T11:14:53.155Z,8.17
2018-10-01T11:17:22.956Z,8.93
2018-10-01T11:19:52.927Z,8.13
2018-10-01T11:22:22.780Z,8.70
2018-10-01T11:24:52.786Z,8.53
2018-10-01T11:27:22.803Z,8.17
2018-10-01T11:29:52.645Z,8.87
2018-10-01T11:32:29.353Z,8.33
2018-10-01T11:34:59.511Z,8.70
2018-10-01T11:37:29.295Z,6.70
2018-10-01T11:39:59.239Z,5.63
2018-10-01T11:42:29.285Z,6.73
2018-10-01T11:44:59.233Z,6.10
2018-10-01T11:47:29.131Z,8.00
2018-10-01T11:49:59.078Z,6.87
2018-10-01T11:52:28.969Z,7.50
2018-10-01T11:54:58.986Z,7.37
2018-10-01T11:57:29.379Z,7.90
2018-10-01T11:59:59.526Z,6.40
2018-10-01T12:02:29.482Z,6.80
2018-10-01T12:04:59.397Z,7.57
2018-10-01T12:07:29.421Z,6.30
2018-10-01T12:09:59.440Z,6.10
2018-10-01T12:12:29.346Z,6.90
2018-10-01T12:14:59.332Z,5.43
2018-10-01T12:17:29.391Z,6.80
2018-10-01T12:20:06.459Z,6.33
2018-10-01T12:22:36.439Z,6.27
2018-10-01T12:25:06.449Z,5.27
2018-10-01T12:27:36.480Z,5.00
2018-10-01T12:30:06.437Z,4.70
2018-10-01T12:32:36.661Z,4.73
2018-10-01T12:35:07.265Z,5.00
2018-10-01T12:37:37.099Z,4.20
2018-10-01T12:40:07.031Z,3.37
2018-10-01T12:42:37.101Z,3.40
2018-10-01T12:45:07.948Z,2.80
2018-10-01T12:47:38.061Z,2.90
2018-10-01T12:50:08.022Z,3.60
2018-10-01T12:52:38.129Z,3.00
2018-10-01T12:55:08.101Z,3.20
2018-10-01T12:57:38.104Z,3.23
2018-10-01T13:00:08.100Z,3.30
2018-10-01T13:02:38.025Z,4.47
2018-10-01T13:05:08.657Z,3.37
2018-10-01T13:07:38.666Z,2.73
2018-10-01T13:10:08.773Z,4.03
2018-10-01T13:12:38.845Z,2.30
2018-10-01T13:15:08.740Z,2.30
2018-10-01T13:17:38.712Z,2.40
2018-10-01T13:20:08.642Z,2.60
2018-10-01T13:22:38.542Z,2.10
2018-10-01T13:25:08.579Z,1.73
2018-10-01T13:27:38.648Z,2.40
2018-10-01T13:30:08.792Z,2.17
2018-10-01T13:32:38.681Z,2.50
2018-10-01T13:35:08.634Z,1.50
2018-10-01T13:37:38.561Z,2.47
2018-10-01T13:40:08.513Z,2.03
2018-10-01T13:42:38.474Z,1.90
2018-10-01T13:45:08.462Z,2.50
2018-10-01T13:47:38.802Z,1.50
2018-10-01T13:50:08.905Z,1.83
2018-10-01T13:52:38.933Z,1.90
2018-10-01T13:55:08.848Z,1.90
2018-10-01T13:57:38.810Z,3.03
2018-10-01T14:00:09.194Z,2.00
2018-10-01T14:02:39.209Z,1.97
2018-10-01T14:05:09.398Z,2.00
2018-10-01T14:07:39.421Z,2.40
2018-10-01T14:10:09.330Z,2.23
2018-10-01T14:12:39.271Z,2.03
2018-10-01T14:15:09.509Z,2.30
2018-10-01T14:17:39.558Z,2.23
2018-10-01T14:20:09.841Z,2.37
2018-10-01T14:22:39.762Z,2.80
2018-10-01T14:25:10.262Z,2.13
2018-10-01T14:27:40.138Z,2.03
2018-10-01T14:30:10.079Z,2.40
2018-10-01T14:32:40.155Z,2.40
2018-10-01T14:35:10.120Z,1.57
2018-10-01T14:37:40.132Z,1.73
2018-10-01T14:40:10.081Z,2.40
2018-10-01T14:42:40.034Z,3.10
2018-10-01T14:45:10.729Z,2.90
2018-10-01T14:47:40.782Z,2.73
2018-10-01T14:50:10.714Z,2.00
2018-10-01T14:52:40.630Z,1.90
2018-10-01T14:55:10.564Z,1.30
2018-10-01T14:57:40.586Z,1.33
2018-10-01T15:00:10.534Z,2.00
2018-10-01T15:02:40.429Z,1.90
2018-10-01T15:05:10.360Z,1.83
2018-10-01T15:07:40.334Z,3.27
2018-10-01T15:10:10.346Z,2.73
2018-10-01T15:12:40.365Z,2.70
2018-10-01T15:15:10.254Z,3.30
2018-10-01T15:17:40.409Z,3.10
2018-10-01T15:20:10.553Z,2.53
2018-10-01T15:22:40.481Z,2.40
2018-10-01T15:25:10.429Z,1.60
2018-10-01T15:27:40.514Z,1.37
2018-10-01T15:30:10.469Z,1.17
2018-10-01T15:32:40.434Z,1.90
2018-10-01T15:35:10.386Z,2.30
2018-10-01T15:37:41.333Z,2.73
2018-10-01T15:40:11.281Z,1.90
2018-10-01T15:42:41.215Z,1.97
2018-10-01T15:45:11.221Z,1.50
2018-10-01T15:47:41.237Z,1.70
2018-10-01T15:50:11.167Z,1.40
2018-10-01T15:52:41.124Z,1.40
2018-10-01T15:55:11.054Z,1.90
2018-10-01T15:57:40.969Z,2.13
2018-10-01T16:00:10.901Z,2.50
2018-10-01T16:02:41.080Z,4.40
2018-10-01T16:05:11.009Z,4.43
2018-10-01T16:07:40.993Z,6.33
2018-10-01T16:10:10.893Z,4.47
2018-10-01T16:12:40.853Z,2.27
2018-10-01T16:15:10.789Z,2.90
2018-10-01T16:17:40.755Z,2.23
2018-10-01T16:20:10.657Z,2.30
2018-10-01T16:22:40.935Z,3.50
2018-10-01T16:25:10.838Z,2.20
2018-10-01T16:27:41.050Z,2.73
2018-10-01T16:30:10.994Z,2.90
2018-10-01T16:32:40.989Z,2.60
2018-10-01T16:35:11.301Z,2.77
2018-10-01T16:37:41.910Z,2.90
2018-10-01T16:40:11.878Z,3.23
2018-10-01T16:42:41.811Z,1.93
2018-10-01T16:45:12.309Z,2.57
2018-10-01T16:47:42.283Z,2.00
2018-10-01T16:50:12.239Z,2.30
2018-10-01T16:52:42.252Z,2.50
2018-10-01T16:55:13.019Z,2.53
2018-10-01T16:57:43.271Z,2.03
2018-10-01T17:00:13.250Z,3.73
2018-10-01T17:02:43.445Z,5.03
2018-10-01T17:05:13.369Z,10.77
2018-10-01T17:07:43.439Z,11.67
2018-10-01T17:10:13.437Z,4.40
2018-10-01T17:12:43.461Z,4.90
2018-10-01T17:15:13.414Z,4.40
2018-10-01T17:17:43.261Z,5.60
2018-10-01T17:20:13.263Z,5.17
2018-10-01T17:22:43.517Z,5.07
2018-10-01T17:25:13.566Z,5.33
2018-10-01T17:27:43.504Z,6.40
2018-10-01T17:30:13.514Z,7.72
2018-10-01T17:32:43.401Z,8.93
2018-10-01T17:35:13.501Z,10.03
2018-10-01T17:37:43.425Z,10.00
2018-10-01T17:40:13.467Z,9.00
2018-10-01T17:42:43.577Z,8.37
2018-10-01T17:45:13.550Z,8.87
2018-10-01T17:47:43.545Z,8.75
2018-10-01T17:50:13.508Z,8.45
2018-10-01T17:52:43.606Z,8.63
2018-10-01T17:55:13.554Z,8.65
2018-10-01T17:57:43.459Z,8.55
2018-10-01T18:00:13.690Z,10.00
2018-10-01T18:02:44.196Z,8.18
2018-10-01T18:05:14.105Z,8.20
2018-10-01T18:07:44.141Z,7.72
2018-10-01T18:10:14.057Z,6.35
2018-10-01T18:12:43.969Z,4.97
2018-10-01T18:15:13.893Z,5.08
2018-10-01T18:17:43.930Z,4.33
2018-10-01T18:20:13.878Z,3.83
2018-10-01T18:22:49.433Z,3.58
2018-10-01T18:25:19.509Z,2.85
2018-10-01T18:27:49.538Z,2.80
2018-10-01T18:30:19.493Z,2.20
2018-10-01T18:32:49.601Z,2.08
2018-10-01T18:35:19.556Z,1.80
2018-10-01T18:37:49.948Z,1.70
2018-10-01T18:40:19.902Z,1.98
2018-10-01T18:42:49.910Z,1.30
2018-10-01T18:45:19.933Z,1.35
2018-10-01T18:47:49.891Z,1.40
2018-10-01T18:50:19.866Z,1.17
2018-10-01T18:52:49.789Z,1.05
2018-10-01T18:55:19.715Z,1.02
2018-10-01T18:57:50.141Z,1.20
2018-10-01T19:00:20.400Z,1.12
2018-10-01T19:02:50.305Z,1.40
2018-10-01T19:05:20.503Z,1.10
2018-10-01T19:07:50.446Z,1.20
2018-10-01T19:10:20.525Z,1.40
2018-10-01T19:12:50.617Z,1.20
2018-10-01T19:15:21.007Z,1.90
2018-10-01T19:17:51.202Z,1.25
2018-10-01T19:20:21.186Z,1.00
2018-10-01T19:22:51.275Z,1.60
2018-10-01T19:25:21.327Z,1.35
2018-10-01T19:27:51.261Z,1.17
2018-10-01T19:30:21.373Z,1.57
2018-10-01T19:32:51.214Z,1.20
2018-10-01T19:35:21.209Z,0.93
2018-10-01T19:37:51.278Z,1.30
2018-10-01T19:40:21.217Z,1.25
2018-10-01T19:42:51.214Z,1.57
2018-10-01T19:45:21.300Z,1.35
2018-10-01T19:47:51.364Z,1.30
2018-10-01T19:50:21.329Z,1.27
2018-10-01T19:52:51.378Z,1.10
2018-10-01T19:55:21.407Z,1.10
2018-10-01T19:57:51.574Z,1.72
2018-10-01T20:00:21.852Z,1.30
2018-10-01T20:02:52.317Z,1.57
2018-10-01T20:05:22.385Z,1.32
2018-10-01T20:07:53.230Z,1.00
2018-10-01T20:10:23.270Z,1.12
2018-10-01T20:12:53.193Z,1.60
2018-10-01T20:15:23.195Z,1.10
2018-10-01T20:17:53.058Z,1.40
2018-10-01T20:20:23.135Z,1.67
2018-10-01T20:22:53.119Z,1.10
2018-10-01T20:25:23.129Z,1.42
2018-10-01T20:27:53.169Z,1.40
2018-10-01T20:30:23.186Z,1.45
2018-10-01T20:32:53.002Z,1.50
2018-10-01T20:35:22.974Z,1.57
2018-10-01T20:37:52.903Z,1.30
2018-10-01T20:40:23.009Z,1.00
2018-10-01T20:42:52.968Z,1.35
2018-10-01T20:45:22.853Z,1.32
2018-10-01T20:47:52.806Z,1.30
2018-10-01T20:50:22.707Z,1.20
2018-10-01T20:52:53.042Z,1.42
2018-10-01T20:55:23.017Z,1.47
2018-10-01T20:57:53.043Z,1.30
2018-10-01T21:00:23.921Z,2.20
2018-10-01T21:02:54.005Z,2.10
2018-10-01T21:05:24.012Z,2.08
2018-10-01T21:07:54.061Z,1.72
2018-10-01T21:10:23.974Z,1.67
2018-10-01T21:12:53.873Z,2.12
2018-10-01T21:15:23.766Z,2.10
2018-10-01T21:17:53.680Z,2.00
2018-10-01T21:20:23.604Z,2.55
2018-10-01T21:22:53.571Z,2.45
2018-10-01T21:25:23.465Z,2.00
2018-10-01T21:27:53.409Z,2.27
2018-10-01T21:30:23.462Z,1.70
2018-10-01T21:32:53.430Z,1.92
2018-10-01T21:35:23.329Z,3.00
2018-10-01T21:37:53.241Z,1.87
2018-10-01T21:40:23.196Z,3.20
2018-10-01T21:42:53.100Z,2.75
2018-10-01T21:45:23.142Z,2.40
2018-10-01T21:47:53.398Z,1.32
2018-10-01T21:50:23.315Z,1.02
2018-10-01T21:52:53.281Z,0.90
2018-10-01T21:55:23.198Z,0.90
2018-10-01T21:57:53.203Z,1.25
2018-10-01T22:00:23.128Z,1.55
2018-10-01T22:02:53.117Z,1.40
2018-10-01T22:05:23.049Z,1.02
2018-10-01T22:07:53.027Z,0.90
2018-10-01T22:10:23.027Z,0.93
2018-10-01T22:12:53.001Z,1.30
2018-10-01T22:15:22.909Z,1.75
2018-10-01T22:17:52.865Z,1.10
2018-10-01T22:20:22.860Z,1.50
2018-10-01T22:22:53.002Z,1.72
2018-10-01T22:25:22.955Z,1.20
2018-10-01T22:27:53.041Z,1.50
2018-10-01T22:30:23.070Z,1.40
2018-10-01T22:32:52.961Z,1.72
2018-10-01T22:35:23.012Z,1.55
2018-10-01T22:37:52.933Z,1.60
2018-10-01T22:40:22.836Z,1.45
2018-10-01T22:42:53.230Z,2.70
2018-10-01T22:45:23.297Z,1.60
2018-10-01T22:47:53.277Z,2.17
2018-10-01T22:50:23.181Z,1.20
2018-10-01T22:52:53.166Z,1.90
2018-10-01T22:55:23.501Z,1.20
2018-10-01T22:57:53.568Z,1.57
2018-10-01T23:00:23.470Z,1.45
2018-10-01T23:02:53.377Z,2.20
2018-10-01T23:05:23.280Z,2.22
2018-10-01T23:07:53.480Z,1.87
2018-10-01T23:10:23.396Z,1.80
2018-10-01T23:12:53.369Z,2.02
2018-10-01T23:15:23.281Z,2.00
2018-10-01T23:17:53.228Z,1.60
2018-10-01T23:20:23.248Z,1.90
2018-10-01T23:22:54.157Z,1.40
2018-10-01T23:25:24.548Z,1.60
2018-10-01T23:27:54.671Z,1.35
2018-10-01T23:30:24.567Z,2.00
2018-10-01T23:32:54.464Z,1.35
2018-10-01T23:35:24.484Z,1.12
2018-10-01T23:37:54.373Z,1.50
2018-10-01T23:40:24.336Z,1.55
2018-10-01T23:42:54.200Z,1.62
2018-10-01T23:45:24.273Z,1.60
2018-10-01T23:47:54.127Z,2.25
2018-10-01T23:50:24.120Z,1.90
2018-10-01T23:52:54.024Z,2.50
2018-10-01T23:55:23.912Z,1.65
2018-10-01T23:57:53.805Z,2.50
